Terminal Aerodrome Forecast
Issued by NWS Dodge City, KS

Home | Current Version | Previous Version | Graphics & Text | Print | Product List | Glossary Off
Versions: 1 2 3 4 5 6 7 8 9 10 11 12 13 14 15 16 17 18 19 20 21 22 23 24 25 26 27 28 29 30 31 32 33 34 35 36 37 38 39 40 41 42 43 44 45 46 47 48 49 50

000
FTUS43 KDDC 251304 AAB
TAFDDC
TAF AMD
KDDC 251304Z 2513/2612 14012KT P6SM BKN050
      TEMPO 2513/2515 1/4SM FG BKN006
     FM251500 22011KT P6SM SCT050 BKN100
     FM252300 29007KT P6SM OVC100 PROB30 2523/2603 P6SM TSRA
      BKN050CB=

USA.gov is the U.S. government's official web portal to all federal, state and local government web resources and services.